createdAt,value
2022-09-25T00:01:34.312Z,49.70
2022-09-25T00:04:03.603Z,47.90
2022-09-25T00:06:33.291Z,48.50
2022-09-25T00:09:02.402Z,48.00
2022-09-25T00:11:33.033Z,49.60
2022-09-25T00:14:02.653Z,49.20
2022-09-25T00:16:32.606Z,49.30
2022-09-25T00:19:34.109Z,48.60
2022-09-25T00:22:02.867Z,48.80
2022-09-25T00:24:32.008Z,48.20
2022-09-25T00:27:01.317Z,48.40
2022-09-25T00:29:30.418Z,49.80
2022-09-25T00:31:59.195Z,51.00
2022-09-25T00:34:27.952Z,50.30
2022-09-25T00:36:56.831Z,53.60
2022-09-25T00:39:25.707Z,50.20
2022-09-25T00:41:54.612Z,50.20
2022-09-25T00:44:56.110Z,49.50
2022-09-25T00:47:33.355Z,47.90
2022-09-25T00:50:04.619Z,49.90
2022-09-25T00:52:33.156Z,47.90
2022-09-25T00:55:05.271Z,49.60
2022-09-25T00:57:36.915Z,47.60
2022-09-25T01:00:09.811Z,47.70
2022-09-25T01:02:42.423Z,47.60
2022-09-25T01:05:14.370Z,48.20
2022-09-25T01:07:47.635Z,48.40
2022-09-25T01:10:18.405Z,48.00
2022-09-25T01:12:48.923Z,48.80
2022-09-25T01:15:20.361Z,48.20
2022-09-25T01:18:00.866Z,50.60
2022-09-25T01:20:50.457Z,48.90
2022-09-25T01:23:30.826Z,47.00
2022-09-25T01:26:19.132Z,48.40
2022-09-25T01:29:01.519Z,46.90
2022-09-25T01:31:37.583Z,48.50
2022-09-25T01:34:13.464Z,47.80
2022-09-25T01:36:47.581Z,46.20
2022-09-25T01:39:21.457Z,48.60
2022-09-25T01:41:54.999Z,48.20
2022-09-25T01:44:28.637Z,47.40
2022-09-25T01:47:06.042Z,48.00
2022-09-25T01:49:39.358Z,46.60
2022-09-25T01:52:13.418Z,46.80
2022-09-25T01:54:45.871Z,45.90
2022-09-25T01:57:20.354Z,45.80
2022-09-25T01:59:53.881Z,48.90
2022-09-25T02:02:28.080Z,49.30
2022-09-25T02:05:03.043Z,47.60
2022-09-25T02:07:35.833Z,48.20
2022-09-25T02:10:09.179Z,48.20
2022-09-25T02:12:42.636Z,50.40
2022-09-25T02:15:15.906Z,49.20
2022-09-25T02:18:09.583Z,48.30
2022-09-25T02:20:41.500Z,47.20
2022-09-25T02:23:17.986Z,47.70
2022-09-25T02:25:52.902Z,46.90
2022-09-25T02:28:22.279Z,48.40
2022-09-25T02:30:54.140Z,52.10
2022-09-25T02:33:23.986Z,51.80
2022-09-25T02:35:52.549Z,48.20
2022-09-25T02:38:21.129Z,48.70
2022-09-25T02:40:55.948Z,48.20
2022-09-25T02:43:37.586Z,49.50
2022-09-25T02:46:11.503Z,47.70
2022-09-25T02:48:49.321Z,48.00
2022-09-25T02:51:26.599Z,49.20
2022-09-25T02:54:05.740Z,47.40
2022-09-25T02:56:40.849Z,47.40
2022-09-25T02:59:15.016Z,46.70
2022-09-25T03:01:46.188Z,46.00
2022-09-25T03:04:17.622Z,48.20
2022-09-25T03:06:47.234Z,47.50
2022-09-25T03:09:19.414Z,48.20
2022-09-25T03:11:47.761Z,46.80
2022-09-25T03:14:15.962Z,48.50
2022-09-25T03:16:48.324Z,49.00
2022-09-25T03:19:19.002Z,49.90
2022-09-25T03:21:47.913Z,48.60
2022-09-25T03:24:16.875Z,47.00
2022-09-25T03:26:45.168Z,47.70
2022-09-25T03:29:14.154Z,48.20
2022-09-25T03:31:42.492Z,47.40
2022-09-25T03:34:13.081Z,46.80
2022-09-25T03:36:42.107Z,48.70
2022-09-25T03:39:10.349Z,49.40
2022-09-25T03:41:38.531Z,50.50
2022-09-25T03:44:07.065Z,48.60
2022-09-25T03:46:35.974Z,48.70
2022-09-25T03:49:04.997Z,49.00
2022-09-25T03:51:34.461Z,49.60
2022-09-25T03:54:03.746Z,48.10
2022-09-25T03:56:32.216Z,49.00
2022-09-25T03:59:00.790Z,49.80
2022-09-25T04:01:29.597Z,47.70
2022-09-25T04:04:00.538Z,48.90
2022-09-25T04:06:28.994Z,50.00
2022-09-25T04:08:57.240Z,49.30
2022-09-25T04:11:25.457Z,48.10
2022-09-25T04:13:54.548Z,45.60
2022-09-25T04:16:22.766Z,48.00
2022-09-25T04:18:51.151Z,46.30
2022-09-25T04:21:19.369Z,47.00
2022-09-25T04:24:02.312Z,46.30
2022-09-25T04:26:30.626Z,48.80
2022-09-25T04:29:00.698Z,47.00
2022-09-25T04:31:29.675Z,48.60
2022-09-25T04:33:57.869Z,47.60
2022-09-25T04:36:26.140Z,47.50
2022-09-25T04:38:54.397Z,47.70
2022-09-25T04:41:22.549Z,47.50
2022-09-25T04:43:50.892Z,47.30
2022-09-25T04:46:22.512Z,46.40
2022-09-25T04:48:51.348Z,46.10
2022-09-25T04:51:19.832Z,48.50
2022-09-25T04:53:48.151Z,50.10
2022-09-25T04:56:17.147Z,47.20
2022-09-25T04:58:46.822Z,48.60
2022-09-25T05:01:16.492Z,49.90
2022-09-25T05:03:49.388Z,49.70
2022-09-25T05:06:17.724Z,49.60
2022-09-25T05:08:48.985Z,49.20
2022-09-25T05:11:17.263Z,51.40
2022-09-25T05:13:48.737Z,50.20
2022-09-25T05:16:17.093Z,47.80
2022-09-25T05:18:45.712Z,46.00
2022-09-25T05:21:13.930Z,46.80
2022-09-25T05:23:42.089Z,48.00
2022-09-25T05:26:10.339Z,50.10
2022-09-25T05:28:38.671Z,50.00
2022-09-25T05:31:07.458Z,50.30
2022-09-25T05:33:36.035Z,52.10
2022-09-25T05:36:06.757Z,50.80
2022-09-25T05:38:37.089Z,52.80
2022-09-25T05:41:07.671Z,51.40
2022-09-25T05:43:39.884Z,52.30
2022-09-25T05:46:08.523Z,52.70
2022-09-25T05:48:37.590Z,52.90
2022-09-25T05:51:06.373Z,51.80
2022-09-25T05:53:35.137Z,51.80
2022-09-25T05:56:05.250Z,49.90
2022-09-25T05:58:34.833Z,51.30
2022-09-25T06:01:05.636Z,51.10
2022-09-25T06:03:34.674Z,49.50
2022-09-25T06:06:03.459Z,48.60
2022-09-25T06:08:34.795Z,48.70
2022-09-25T06:11:04.320Z,48.70
2022-09-25T06:13:36.103Z,48.20
2022-09-25T06:16:12.914Z,45.10
2022-09-25T06:18:41.173Z,46.90
2022-09-25T06:21:09.844Z,48.30
2022-09-25T06:23:38.064Z,46.00
2022-09-25T06:26:07.090Z,46.20
2022-09-25T06:28:37.708Z,45.10
2022-09-25T06:31:06.755Z,44.20
2022-09-25T06:33:37.896Z,43.80
2022-09-25T06:36:06.740Z,46.60
2022-09-25T06:38:35.354Z,46.10
2022-09-25T06:41:03.754Z,47.40
2022-09-25T06:43:35.211Z,47.70
2022-09-25T06:46:03.954Z,45.50
2022-09-25T06:48:32.786Z,45.90
2022-09-25T06:51:01.663Z,44.60
2022-09-25T06:53:30.242Z,44.70
2022-09-25T06:55:59.243Z,44.50
2022-09-25T06:58:29.599Z,45.20
2022-09-25T07:00:58.280Z,44.50
2022-09-25T07:03:45.938Z,43.80
2022-09-25T07:06:16.614Z,43.20
2022-09-25T07:08:47.423Z,43.40
2022-09-25T07:11:18.447Z,44.30
2022-09-25T07:13:47.583Z,43.10
2022-09-25T07:16:17.862Z,44.20
2022-09-25T07:18:47.106Z,45.60
2022-09-25T07:21:17.582Z,42.60
2022-09-25T07:23:48.249Z,43.90
2022-09-25T07:26:21.069Z,41.60
2022-09-25T07:28:54.672Z,40.40
2022-09-25T07:31:24.915Z,36.30
2022-09-25T07:33:53.484Z,38.20
2022-09-25T07:36:22.141Z,35.90
2022-09-25T07:38:51.307Z,37.10
2022-09-25T07:41:21.809Z,34.40
2022-09-25T07:44:02.009Z,30.70
2022-09-25T07:46:42.689Z,31.20
2022-09-25T07:49:11.027Z,32.00
2022-09-25T07:51:39.397Z,31.60
2022-09-25T07:54:08.610Z,31.30
2022-09-25T07:56:37.711Z,29.00
2022-09-25T07:59:06.272Z,28.50
2022-09-25T08:01:38.226Z,27.40
2022-09-25T08:04:09.471Z,26.70
2022-09-25T08:06:37.932Z,29.30
2022-09-25T08:09:10.431Z,27.60
2022-09-25T08:11:39.238Z,27.50
2022-09-25T08:14:07.585Z,27.40
2022-09-25T08:16:36.163Z,27.60
2022-09-25T08:19:04.809Z,26.70
2022-09-25T08:21:35.084Z,25.60
2022-09-25T08:24:03.774Z,26.40
2022-09-25T08:26:32.521Z,25.20
2022-09-25T08:29:01.187Z,29.20
2022-09-25T08:31:29.780Z,26.70
2022-09-25T08:34:09.975Z,26.70
2022-09-25T08:36:50.109Z,26.40
2022-09-25T08:39:18.603Z,27.40
2022-09-25T08:41:50.276Z,26.50
2022-09-25T08:44:25.884Z,26.30
2022-09-25T08:47:19.258Z,26.70
2022-09-25T08:49:57.758Z,28.50
2022-09-25T08:52:26.348Z,28.10
2022-09-25T08:54:54.573Z,26.00
2022-09-25T08:57:34.217Z,27.10
2022-09-25T09:00:08.388Z,27.30
2022-09-25T09:02:42.536Z,27.10
2022-09-25T09:05:20.241Z,25.90
2022-09-25T09:07:54.265Z,25.50
2022-09-25T09:10:30.727Z,28.90
2022-09-25T09:13:17.275Z,26.30
2022-09-25T09:15:49.879Z,25.80
2022-09-25T09:18:23.789Z,25.90
2022-09-25T09:20:54.553Z,26.00
2022-09-25T09:23:27.244Z,26.50
2022-09-25T09:26:01.582Z,26.20
2022-09-25T09:29:05.091Z,23.00
2022-09-25T09:31:46.812Z,23.50
2022-09-25T09:34:53.023Z,23.00
2022-09-25T09:37:30.909Z,23.30
2022-09-25T09:40:15.666Z,20.60
2022-09-25T09:42:52.974Z,20.90
2022-09-25T09:45:27.482Z,20.90
2022-09-25T09:48:06.460Z,20.40
2022-09-25T09:50:44.505Z,21.80
2022-09-25T09:53:23.971Z,21.00
2022-09-25T09:55:57.267Z,21.00
2022-09-25T09:58:30.693Z,21.70
2022-09-25T10:01:06.973Z,19.80
2022-09-25T10:03:46.787Z,19.40
2022-09-25T10:06:20.481Z,17.80
2022-09-25T10:08:50.743Z,18.70
2022-09-25T10:11:20.537Z,18.40
2022-09-25T10:13:48.786Z,18.80
2022-09-25T10:16:21.601Z,18.70
2022-09-25T10:18:54.381Z,18.30
2022-09-25T10:23:53.425Z,18.00
2022-09-25T10:26:28.697Z,18.40
2022-09-25T10:28:58.327Z,16.20
2022-09-25T10:31:30.461Z,18.10
2022-09-25T10:34:16.953Z,17.10
2022-09-25T10:36:47.437Z,17.10
2022-09-25T10:39:43.669Z,16.00
2022-09-25T10:42:32.319Z,14.50
2022-09-25T10:45:14.847Z,14.90
2022-09-25T10:48:03.501Z,15.60
2022-09-25T10:50:31.768Z,14.40
2022-09-25T10:53:01.368Z,14.30
2022-09-25T10:55:32.650Z,13.60
2022-09-25T10:58:08.996Z,13.60
2022-09-25T11:00:52.473Z,12.50
2022-09-25T11:03:24.433Z,11.90
2022-09-25T11:05:55.691Z,10.90
2022-09-25T11:08:29.431Z,14.40
2022-09-25T11:11:00.001Z,10.70
2022-09-25T11:13:36.016Z,11.10
2022-09-25T11:16:09.567Z,12.30
2022-09-25T11:18:41.797Z,14.10
2022-09-25T11:21:20.954Z,12.80
2022-09-25T11:24:05.914Z,14.20
2022-09-25T11:26:38.086Z,12.60
2022-09-25T11:29:15.040Z,12.40
2022-09-25T11:31:48.597Z,13.10
2022-09-25T11:34:27.265Z,12.60
2022-09-25T11:37:03.905Z,11.80
2022-09-25T11:40:01.160Z,12.40
2022-09-25T11:42:35.745Z,12.10
2022-09-25T11:45:13.248Z,10.70
2022-09-25T11:47:52.963Z,10.30
2022-09-25T11:50:27.189Z,9.40
2022-09-25T11:53:04.341Z,11.90
2022-09-25T11:55:47.268Z,11.50
2022-09-25T11:58:34.853Z,11.00
2022-09-25T12:01:16.067Z,13.60
2022-09-25T12:03:59.937Z,13.00
2022-09-25T12:06:57.483Z,12.10
2022-09-25T12:09:45.376Z,12.40
2022-09-25T12:12:20.951Z,11.30
2022-09-25T12:14:59.462Z,12.10
2022-09-25T12:17:40.186Z,11.60
2022-09-25T12:20:17.481Z,11.50
2022-09-25T12:22:59.512Z,11.20
2022-09-25T12:25:44.430Z,11.00
2022-09-25T12:28:20.830Z,10.40
2022-09-25T12:31:05.393Z,11.70
2022-09-25T12:33:44.310Z,12.60
2022-09-25T12:36:17.510Z,12.00
2022-09-25T12:38:54.611Z,11.10
2022-09-25T12:41:32.678Z,10.30
2022-09-25T12:44:10.294Z,9.60
2022-09-25T12:46:45.206Z,10.50
2022-09-25T12:49:20.041Z,10.50
2022-09-25T12:51:50.672Z,9.80
2022-09-25T12:54:25.935Z,8.90
2022-09-25T12:56:58.371Z,8.70
2022-09-25T12:59:34.641Z,9.00
2022-09-25T13:02:11.306Z,9.20
2022-09-25T13:05:02.992Z,9.40
2022-09-25T13:07:38.352Z,7.60
2022-09-25T13:10:24.479Z,10.90
2022-09-25T13:12:55.811Z,9.10
2022-09-25T13:15:28.070Z,8.60
2022-09-25T13:17:59.599Z,8.80
2022-09-25T13:21:20.739Z,9.10
2022-09-25T13:23:52.531Z,8.70
2022-09-25T13:26:24.407Z,8.30
2022-09-25T13:28:56.595Z,8.30
2022-09-25T13:31:27.274Z,10.30
2022-09-25T13:34:06.857Z,8.70
2022-09-25T13:36:46.760Z,8.60
2022-09-25T13:39:45.709Z,9.00
2022-09-25T13:42:22.265Z,8.30
2022-09-25T13:45:05.700Z,8.40
2022-09-25T13:48:07.849Z,8.50
2022-09-25T13:50:44.904Z,8.80
2022-09-25T13:53:37.322Z,8.20
2022-09-25T13:56:21.575Z,9.10
2022-09-25T13:59:21.861Z,8.20
2022-09-25T14:01:54.150Z,8.60
2022-09-25T14:04:32.489Z,8.40
2022-09-25T14:07:18.252Z,8.70
2022-09-25T14:09:50.020Z,8.40
2022-09-25T14:12:32.627Z,7.30
2022-09-25T14:15:06.859Z,13.50
2022-09-25T14:17:36.684Z,7.70
2022-09-25T14:20:25.411Z,8.10
2022-09-25T14:22:56.058Z,7.50
2022-09-25T14:25:32.634Z,7.70
2022-09-25T14:28:02.677Z,7.40
2022-09-25T14:30:32.237Z,6.90
2022-09-25T14:33:23.202Z,7.60
2022-09-25T14:36:00.930Z,7.60
2022-09-25T14:38:53.424Z,7.50
2022-09-25T14:41:43.477Z,7.80
2022-09-25T14:44:39.642Z,7.70
2022-09-25T14:47:13.660Z,7.80
2022-09-25T14:49:45.277Z,7.40
2022-09-25T14:52:16.745Z,7.10
2022-09-25T14:54:47.930Z,7.90
2022-09-25T14:57:25.248Z,7.90
2022-09-25T14:59:57.153Z,8.50
2022-09-25T15:02:31.038Z,7.70
2022-09-25T15:05:15.469Z,8.00
2022-09-25T15:07:45.619Z,7.50
2022-09-25T15:10:30.526Z,6.70
2022-09-25T15:13:08.632Z,8.40
2022-09-25T15:15:38.615Z,10.80
2022-09-25T15:18:12.584Z,7.60
2022-09-25T15:20:46.359Z,8.10
2022-09-25T15:23:19.639Z,6.50
2022-09-25T15:25:51.181Z,7.00
2022-09-25T15:28:23.840Z,6.50
2022-09-25T15:33:27.892Z,6.60
2022-09-25T15:35:57.727Z,7.10
2022-09-25T15:38:33.291Z,6.70
2022-09-25T15:41:02.426Z,6.80
2022-09-25T15:43:31.025Z,7.10
2022-09-25T15:46:29.847Z,7.70
2022-09-25T15:48:59.737Z,7.20
2022-09-25T15:51:32.924Z,6.70
2022-09-25T15:54:03.602Z,7.10
2022-09-25T15:56:38.331Z,6.80
2022-09-25T15:59:17.350Z,7.10
2022-09-25T16:02:04.346Z,10.20
2022-09-25T16:04:49.014Z,13.10
2022-09-25T16:07:26.631Z,12.10
2022-09-25T16:09:57.399Z,11.60
2022-09-25T16:12:34.210Z,12.30
2022-09-25T16:15:40.846Z,15.20
2022-09-25T16:18:28.807Z,11.90
2022-09-25T16:21:09.386Z,13.00
2022-09-25T16:23:39.395Z,12.90
2022-09-25T16:26:16.486Z,12.60
2022-09-25T16:28:52.270Z,13.80
2022-09-25T16:31:24.585Z,14.60
2022-09-25T16:33:55.950Z,17.30
2022-09-25T16:36:27.055Z,19.30
2022-09-25T16:39:14.573Z,18.30
2022-09-25T16:41:47.759Z,13.60
2022-09-25T16:44:17.580Z,12.40
2022-09-25T16:47:03.527Z,12.70
2022-09-25T16:49:33.253Z,14.90
2022-09-25T16:52:05.892Z,16.20
2022-09-25T16:54:38.058Z,17.70
2022-09-25T16:57:06.537Z,20.80
2022-09-25T16:59:35.393Z,19.50
2022-09-25T17:02:18.103Z,19.90
2022-09-25T17:04:46.627Z,18.20
2022-09-25T17:07:15.439Z,16.70
2022-09-25T17:09:44.071Z,17.60
2022-09-25T17:12:17.873Z,18.60
2022-09-25T17:14:47.145Z,18.40
2022-09-25T17:17:17.953Z,20.10
2022-09-25T17:19:46.698Z,21.10
2022-09-25T17:22:15.529Z,20.20
2022-09-25T17:24:43.808Z,22.20
2022-09-25T17:27:16.225Z,23.90
2022-09-25T17:29:46.118Z,22.30
2022-09-25T17:32:16.926Z,24.50
2022-09-25T17:34:46.561Z,24.00
2022-09-25T17:37:15.068Z,22.10
2022-09-25T17:39:43.972Z,23.40
2022-09-25T17:42:12.446Z,22.60
2022-09-25T17:44:43.126Z,22.50
2022-09-25T17:47:12.548Z,21.40
2022-09-25T17:49:41.301Z,20.60
2022-09-25T17:52:21.575Z,19.40
2022-09-25T17:54:50.469Z,19.80
2022-09-25T17:57:19.568Z,17.40
2022-09-25T17:59:48.297Z,19.30
2022-09-25T18:02:20.015Z,19.70
2022-09-25T18:04:48.821Z,16.80
2022-09-25T18:07:18.201Z,16.80
2022-09-25T18:09:46.930Z,17.20
2022-09-25T18:12:15.740Z,15.60
2022-09-25T18:14:45.440Z,18.20
2022-09-25T18:17:15.633Z,18.50
2022-09-25T18:20:03.017Z,17.30
2022-09-25T18:22:31.883Z,16.90
2022-09-25T18:25:00.346Z,14.70
2022-09-25T18:27:33.587Z,15.90
2022-09-25T18:30:02.445Z,17.00
2022-09-25T18:32:32.476Z,17.50
2022-09-25T18:35:02.495Z,17.50
2022-09-25T18:37:31.056Z,16.80
2022-09-25T18:39:59.537Z,16.20
2022-09-25T18:42:28.073Z,16.50
2022-09-25T18:44:56.692Z,17.10
2022-09-25T18:47:26.418Z,17.10
2022-09-25T18:49:54.930Z,17.80
2022-09-25T18:52:23.713Z,20.00
2022-09-25T18:54:52.441Z,20.50
2022-09-25T18:57:20.879Z,21.00
2022-09-25T18:59:49.557Z,22.60
2022-09-25T19:02:22.449Z,21.00
2022-09-25T19:04:54.126Z,25.00
2022-09-25T19:07:23.185Z,22.50
2022-09-25T19:09:52.846Z,21.30
2022-09-25T19:12:22.367Z,22.30
2022-09-25T19:14:51.385Z,21.20
2022-09-25T19:17:20.168Z,20.20
2022-09-25T19:19:49.521Z,20.50
2022-09-25T19:22:20.778Z,20.90
2022-09-25T19:24:50.825Z,20.50
2022-09-25T19:27:19.578Z,21.80
2022-09-25T19:29:48.330Z,21.20
2022-09-25T19:32:18.541Z,20.70
2022-09-25T19:34:47.903Z,21.20
2022-09-25T19:37:17.051Z,22.00
2022-09-25T19:40:06.887Z,21.20
2022-09-25T19:42:37.159Z,22.60
2022-09-25T19:45:07.989Z,21.70
2022-09-25T19:47:37.126Z,21.80
2022-09-25T19:50:08.501Z,21.20
2022-09-25T19:52:38.036Z,20.30
2022-09-25T19:55:08.441Z,23.40
2022-09-25T19:57:37.285Z,24.20
2022-09-25T20:00:09.158Z,23.30
2022-09-25T20:02:43.595Z,25.70
2022-09-25T20:05:12.396Z,26.20
2022-09-25T20:07:40.923Z,25.60
2022-09-25T20:10:09.471Z,28.10
2022-09-25T20:12:37.839Z,28.10
2022-09-25T20:15:08.411Z,29.60
2022-09-25T20:17:37.209Z,27.00
2022-09-25T20:20:06.845Z,26.70
2022-09-25T20:22:38.460Z,27.20
2022-09-25T20:25:08.982Z,27.90
2022-09-25T20:27:37.895Z,26.70
2022-09-25T20:30:08.559Z,28.00
2022-09-25T20:32:38.055Z,27.00
2022-09-25T20:35:08.232Z,27.50
2022-09-25T20:37:36.821Z,28.60
2022-09-25T20:40:06.647Z,30.10
2022-09-25T20:42:35.084Z,28.30
2022-09-25T20:45:04.320Z,29.00
2022-09-25T20:47:33.255Z,30.90
2022-09-25T20:50:02.022Z,30.70
2022-09-25T20:52:32.277Z,33.30
2022-09-25T20:55:00.685Z,31.50
2022-09-25T20:57:32.783Z,33.40
2022-09-25T21:00:01.839Z,36.20
2022-09-25T21:02:31.980Z,33.70
2022-09-25T21:05:00.368Z,33.80
2022-09-25T21:07:28.725Z,31.60
2022-09-25T21:09:57.044Z,33.20
2022-09-25T21:12:25.563Z,32.20
2022-09-25T21:14:56.689Z,30.60
2022-09-25T21:17:25.448Z,30.30
2022-09-25T21:19:54.074Z,30.00
2022-09-25T21:22:22.697Z,30.60
2022-09-25T21:24:51.313Z,28.70
2022-09-25T21:27:19.710Z,28.80
2022-09-25T21:29:48.206Z,27.80
2022-09-25T21:32:16.972Z,28.50
2022-09-25T21:34:45.590Z,27.90
2022-09-25T21:37:14.223Z,26.70
2022-09-25T21:39:43.171Z,27.70
2022-09-25T21:42:11.746Z,27.80
2022-09-25T21:44:40.307Z,27.30
2022-09-25T21:47:09.049Z,28.50
2022-09-25T21:49:37.924Z,28.20
2022-09-25T21:52:06.992Z,28.50
2022-09-25T21:54:35.620Z,28.10
2022-09-25T21:57:04.397Z,28.20
2022-09-25T21:59:32.879Z,27.70
2022-09-25T22:02:01.476Z,28.60
2022-09-25T22:04:30.358Z,27.60
2022-09-25T22:06:58.994Z,29.00
2022-09-25T22:09:27.635Z,28.30
2022-09-25T22:11:56.847Z,28.30
2022-09-25T22:14:25.360Z,27.70
2022-09-25T22:16:54.935Z,26.10
2022-09-25T22:19:25.669Z,26.60
2022-09-25T22:21:56.333Z,27.70
2022-09-25T22:24:26.251Z,28.50
2022-09-25T22:26:56.497Z,27.30
2022-09-25T22:29:26.432Z,27.60
2022-09-25T22:31:55.376Z,27.40
2022-09-25T22:34:27.439Z,28.30
2022-09-25T22:36:59.986Z,28.70
2022-09-25T22:39:30.656Z,28.30
2022-09-25T22:41:59.531Z,28.40
2022-09-25T22:44:28.502Z,28.00
2022-09-25T22:47:01.400Z,26.90
2022-09-25T22:49:32.767Z,27.60
2022-09-25T22:52:01.826Z,28.90
2022-09-25T22:54:30.603Z,27.00
2022-09-25T22:56:59.530Z,26.60
2022-09-25T22:59:28.491Z,26.80
2022-09-25T23:01:57.252Z,26.60
2022-09-25T23:04:26.105Z,28.50
2022-09-25T23:06:54.732Z,27.30
2022-09-25T23:09:25.510Z,27.50
2022-09-25T23:11:55.303Z,27.30
2022-09-25T23:14:26.187Z,27.90
2022-09-25T23:16:54.937Z,26.60
2022-09-25T23:19:24.727Z,27.10
2022-09-25T23:21:54.345Z,28.30
2022-09-25T23:24:23.791Z,27.60
2022-09-25T23:26:52.997Z,27.20
2022-09-25T23:29:22.282Z,28.80
2022-09-25T23:31:51.870Z,32.10
2022-09-25T23:34:21.045Z,34.10
2022-09-25T23:36:49.711Z,32.90
2022-09-25T23:39:19.933Z,35.00
2022-09-25T23:41:48.603Z,37.00
2022-09-25T23:44:17.172Z,39.90
2022-09-25T23:46:45.686Z,37.30
2022-09-25T23:49:15.298Z,36.20
2022-09-25T23:51:45.554Z,38.60
2022-09-25T23:54:14.489Z,35.10
2022-09-25T23:56:42.923Z,36.50
2022-09-25T23:59:13.034Z,34.80
